Flugplatz Weißenburg-Wülzburg (UL)

Hier findest Du alle Informationen zum Flugplatz Weißenburg-Wülzburg (UL).

Informationen für Piloten zum Flugplatz Weißenburg-Wülzburg

Hier findest Du alle relevanten Informationen, die Du als Pilot benötigst, um Weißenburg-Wülzburg anzufliegen.

Flugplatz: Weißenburg-Wülzburg ICAO-Code: UL Flugplatz
Frequenz Turm: 126,035 Mhz GAFOR Gebiet: 56
Frequenz Ground: 126,035 Mhz Mogas: ja
Platzrunde: S 2800 ft Landegebühr: 5,00 €
Platzhöhe: - Sunrise: 05:59 Uhr UTC
Pisten: 05/23 - 700 m x 30 m, ASPH Sunset: 16:57 Uhr UTC

Mitglieder, die in Weißenburg-Wülzburg fliegen

Flugwetter am Flugplatz Weißenburg-Wülzburg

Die METAR Information stammen aus EDDN (52.75 km entfernt).

METAR Code:
2021/01/19 20:50
EDDN 192050Z 17004KT 9999 FEW007 SCT015 03/02 Q1013 R28/290095 NOSIG

Flugschulen am Flugplatz Weißenburg-Wülzburg

Am Flugplatz Weißenburg-Wülzburg gibt es leider keine Flugschule.

Benachbarte Flugplätze und Flugschulen

Es gibt 22 weitere Flugplätze in einem Umkreis von 50 km um den Flugplatz Weißenburg-Wülzburg.

Jetzt anmelden

Passwort vergessen

Umfrage Archiv

Seid Ihr aufgrund von Corona im Jahr 2020 mehr oder weniger geflogen als im Jahr zuvor?

weniger
51.4 %
gleich viel
29.7 %
mehr
18.9 %
Stimmen: 111 | Diskussion
Anzeige: Roland Aircraft
Statistik Alle Mitglieder

Aktuell sind 47 Besucher online, davon 1 Mitglied und 46 Gäste.


Mitglieder online:
Nordex 

Anzeige: VFR Sprechfunk Simulator


Anzeige: Pocket FMS